KQRH

Camp Lemonier

Camp Lemonier, Djibouti
METAR KQRH 200056Z AUTO 00000KT 8000 BR FEW049 23/20 A2998 RMK AO2 SLP139 WND DATA ESTMD T02330197
Observed Flight Rules
Jan-20 @ 00:56 UTC (22 minutes ago) Marginal Visual Flight Rules
Wind Visibility Clouds Conditions
Calm 7,998 meters
  • Few at 4,900' AGL
  • Mist
Temperatures Readings
Current 23°C / 73°F
Dewpoint 20°C / 68°F
Humidity 83%
Altimeter 29.98" Hg
Pressure 1013.9 hPa
METAR KQRH 200056Z AUTO 00000KT 8000 BR FEW049 23/20 A2998 RMK AO2 SLP139 WND DATA ESTMD T02330197
Observed Flight Rules
Jan-20 @ 00:56 UTC
(22 minutes ago)
MVFR
Wind Visibility
Calm 7,998 meters
Clouds
  • Few at 4,900' AGL
Conditions
  • Mist
Temperature Dewpoint
23°C / 73°F 20°C / 68°F
Humidity Altimeter Pressure
83% 29.98" Hg 1013.9 hPa